createdAt,value
2023-03-02T00:01:40.372Z,3.00
2023-03-02T00:04:12.861Z,2.53
2023-03-02T00:06:40.392Z,3.77
2023-03-02T00:09:08.275Z,4.00
2023-03-02T00:11:38.069Z,2.37
2023-03-02T00:14:06.258Z,2.27
2023-03-02T00:16:34.782Z,2.65
2023-03-02T00:19:02.701Z,3.00
2023-03-02T00:21:30.013Z,2.50
2023-03-02T00:23:57.998Z,2.70
2023-03-02T00:26:25.391Z,4.50
2023-03-02T00:28:52.735Z,4.07
2023-03-02T00:31:20.466Z,2.57
2023-03-02T00:33:47.820Z,1.93
2023-03-02T00:36:20.780Z,1.90
2023-03-02T00:38:48.510Z,3.60
2023-03-02T00:41:16.839Z,1.57
2023-03-02T00:43:45.967Z,1.43
2023-03-02T00:46:17.872Z,1.48
2023-03-02T00:48:46.198Z,4.07
2023-03-02T00:51:14.388Z,1.98
2023-03-02T00:53:42.494Z,3.00
2023-03-02T00:56:10.710Z,3.47
2023-03-02T00:58:40.667Z,5.90
2023-03-02T01:01:11.430Z,3.78
2023-03-02T01:03:39.907Z,4.03
2023-03-02T01:06:15.374Z,2.77
2023-03-02T01:08:43.287Z,4.00
2023-03-02T01:11:22.438Z,6.00
2023-03-02T01:13:51.584Z,5.43
2023-03-02T01:16:19.084Z,4.60
2023-03-02T01:18:46.442Z,3.00
2023-03-02T01:21:16.211Z,5.47
2023-03-02T01:23:43.636Z,4.33
2023-03-02T01:26:11.356Z,2.90
2023-03-02T01:28:39.070Z,3.27
2023-03-02T01:31:07.058Z,2.53
2023-03-02T01:33:34.422Z,3.23
2023-03-02T01:36:02.590Z,5.10
2023-03-02T01:38:30.098Z,2.83
2023-03-02T01:40:58.502Z,3.37
2023-03-02T01:43:26.241Z,5.45
2023-03-02T01:45:57.693Z,6.40
2023-03-02T01:48:42.907Z,7.97
2023-03-02T01:51:15.040Z,7.67
2023-03-02T01:53:46.951Z,9.03
2023-03-02T01:56:23.605Z,6.23
2023-03-02T01:59:02.132Z,5.47
2023-03-02T02:01:34.891Z,3.67
2023-03-02T02:04:03.060Z,4.17
2023-03-02T02:06:42.911Z,3.37
2023-03-02T02:09:15.230Z,6.10
2023-03-02T02:11:44.113Z,3.80
2023-03-02T02:14:12.109Z,6.97
2023-03-02T02:16:40.864Z,19.10
2023-03-02T02:19:24.052Z,4.82
2023-03-02T02:21:51.665Z,8.17
2023-03-02T02:24:18.954Z,5.07
2023-03-02T02:26:58.066Z,4.20
2023-03-02T02:29:31.015Z,6.70
2023-03-02T02:32:10.847Z,4.70
2023-03-02T02:34:46.596Z,6.30
2023-03-02T02:37:20.573Z,5.13
2023-03-02T02:39:50.541Z,5.57
2023-03-02T02:42:24.542Z,8.03
2023-03-02T02:44:58.237Z,7.53
2023-03-02T02:47:26.488Z,8.63
2023-03-02T02:49:56.775Z,4.65
2023-03-02T02:52:26.829Z,6.12
2023-03-02T02:54:57.677Z,6.67
2023-03-02T02:57:29.434Z,6.10
2023-03-02T03:00:01.052Z,7.47
2023-03-02T03:02:33.303Z,7.97
2023-03-02T03:05:03.972Z,6.43
2023-03-02T03:07:32.745Z,5.67
2023-03-02T03:10:23.653Z,6.30
2023-03-02T03:12:51.758Z,7.73
2023-03-02T03:15:21.138Z,5.43
2023-03-02T03:17:55.188Z,9.17
2023-03-02T03:20:24.214Z,6.27
2023-03-02T03:22:53.645Z,7.95
2023-03-02T03:25:22.653Z,6.93
2023-03-02T03:27:50.488Z,7.93
2023-03-02T03:30:18.880Z,7.20
2023-03-02T03:32:46.553Z,7.20
2023-03-02T03:35:14.811Z,5.43
2023-03-02T03:37:43.255Z,5.30
2023-03-02T03:40:11.002Z,11.55
2023-03-02T03:42:39.947Z,5.93
2023-03-02T03:45:08.985Z,6.77
2023-03-02T03:47:37.358Z,11.10
2023-03-02T03:50:05.844Z,7.12
2023-03-02T03:52:33.328Z,7.97
2023-03-02T03:55:02.233Z,10.50
2023-03-02T03:57:30.480Z,6.55
2023-03-02T03:59:58.049Z,6.40
2023-03-02T04:02:25.518Z,7.73
2023-03-02T04:04:53.284Z,7.90
2023-03-02T04:07:21.122Z,4.67
2023-03-02T04:09:48.531Z,6.20
2023-03-02T04:12:16.476Z,4.17
2023-03-02T04:14:45.212Z,4.07
2023-03-02T04:19:41.767Z,6.33
2023-03-02T04:22:09.761Z,3.83
2023-03-02T04:24:37.126Z,3.47
2023-03-02T04:27:05.018Z,3.93
2023-03-02T04:29:32.683Z,3.57
2023-03-02T04:32:01.277Z,4.18
2023-03-02T04:34:29.599Z,5.75
2023-03-02T04:36:57.137Z,4.47
2023-03-02T04:39:25.103Z,5.57
2023-03-02T04:41:53.462Z,3.87
2023-03-02T04:44:21.451Z,3.43
2023-03-02T04:46:49.696Z,5.20
2023-03-02T04:49:19.794Z,9.68
2023-03-02T04:51:49.211Z,5.60
2023-03-02T04:54:22.078Z,4.57
2023-03-02T04:56:51.572Z,5.17
2023-03-02T04:59:22.591Z,4.40
2023-03-02T05:01:50.596Z,3.40
2023-03-02T05:04:18.556Z,4.83
2023-03-02T05:06:46.309Z,5.17
2023-03-02T05:09:14.380Z,8.33
2023-03-02T05:11:41.961Z,8.07
2023-03-02T05:14:12.468Z,6.97
2023-03-02T05:16:42.084Z,5.30
2023-03-02T05:19:11.614Z,6.70
2023-03-02T05:21:39.445Z,6.10
2023-03-02T05:24:07.288Z,5.90
2023-03-02T05:26:35.297Z,10.07
2023-03-02T05:29:03.055Z,8.60
2023-03-02T05:31:35.319Z,5.23
2023-03-02T05:34:05.027Z,7.57
2023-03-02T05:39:00.245Z,7.40
2023-03-02T05:41:28.940Z,5.80
2023-03-02T05:43:56.315Z,7.67
2023-03-02T05:46:24.254Z,8.17
2023-03-02T05:48:52.128Z,7.97
2023-03-02T05:51:19.700Z,9.80
2023-03-02T05:53:47.150Z,8.07
2023-03-02T05:56:14.887Z,6.33
2023-03-02T05:58:42.292Z,6.50
2023-03-02T06:01:14.773Z,6.28
2023-03-02T06:03:43.724Z,8.23
2023-03-02T06:06:14.473Z,37.33
2023-03-02T06:08:43.155Z,8.40
2023-03-02T06:11:12.044Z,6.43
2023-03-02T06:13:40.383Z,8.15
2023-03-02T06:16:09.166Z,9.13
2023-03-02T06:18:39.277Z,8.00
2023-03-02T06:21:08.925Z,8.17
2023-03-02T06:23:36.604Z,11.50
2023-03-02T06:26:11.729Z,10.50
2023-03-02T06:28:51.588Z,8.33
2023-03-02T06:31:19.871Z,8.17
2023-03-02T06:33:47.818Z,7.23
2023-03-02T06:36:17.275Z,5.50
2023-03-02T06:38:44.666Z,8.30
2023-03-02T06:41:12.310Z,7.33
2023-03-02T06:43:39.709Z,5.87
2023-03-02T06:46:07.272Z,5.83
2023-03-02T06:48:35.022Z,5.70
2023-03-02T06:51:02.357Z,6.30
2023-03-02T06:53:30.128Z,10.60
2023-03-02T06:55:57.713Z,7.73
2023-03-02T06:58:25.083Z,5.83
2023-03-02T07:00:52.474Z,6.37
2023-03-02T07:03:20.327Z,6.17
2023-03-02T07:05:49.308Z,4.13
2023-03-02T07:08:16.621Z,4.28
2023-03-02T07:10:44.459Z,3.70
2023-03-02T07:13:11.855Z,8.60
2023-03-02T07:15:40.398Z,3.53
2023-03-02T07:18:09.054Z,2.42
2023-03-02T07:20:36.667Z,5.15
2023-03-02T07:23:05.377Z,3.37
2023-03-02T07:25:33.493Z,2.80
2023-03-02T07:28:00.839Z,3.53
2023-03-02T07:30:28.271Z,3.40
2023-03-02T07:32:55.970Z,5.17
2023-03-02T07:35:23.304Z,3.67
2023-03-02T07:37:52.378Z,5.80
2023-03-02T07:40:21.757Z,5.73
2023-03-02T07:42:49.302Z,3.40
2023-03-02T07:45:17.142Z,3.67
2023-03-02T07:47:44.734Z,2.67
2023-03-02T07:50:12.276Z,3.70
2023-03-02T07:52:39.807Z,2.83
2023-03-02T07:55:07.757Z,6.90
2023-03-02T07:57:35.283Z,2.93
2023-03-02T08:00:04.036Z,3.60
2023-03-02T08:02:41.205Z,3.20
2023-03-02T08:05:10.230Z,4.20
2023-03-02T08:07:37.626Z,7.75
2023-03-02T08:10:05.726Z,7.00
2023-03-02T08:12:33.367Z,5.82
2023-03-02T08:15:01.711Z,6.43
2023-03-02T08:17:30.851Z,5.57
2023-03-02T08:19:58.458Z,5.67
2023-03-02T08:22:25.794Z,4.83
2023-03-02T08:24:53.112Z,7.30
2023-03-02T08:27:20.787Z,7.50
2023-03-02T08:29:48.277Z,12.70
2023-03-02T08:32:15.763Z,21.23
2023-03-02T08:34:43.414Z,10.03
2023-03-02T08:37:10.890Z,6.83
2023-03-02T08:39:38.335Z,9.33
2023-03-02T08:42:05.952Z,5.87
2023-03-02T08:44:33.375Z,6.13
2023-03-02T08:47:00.642Z,6.73
2023-03-02T08:49:28.545Z,6.33
2023-03-02T08:51:56.529Z,4.93
2023-03-02T08:54:23.926Z,7.30
2023-03-02T08:56:51.785Z,4.50
2023-03-02T08:59:19.124Z,6.57
2023-03-02T09:01:46.527Z,5.37
2023-03-02T09:04:14.238Z,11.77
2023-03-02T09:06:43.924Z,53.67
2023-03-02T09:09:13.521Z,33.53
2023-03-02T09:11:42.456Z,17.20
2023-03-02T09:14:10.193Z,6.72
2023-03-02T09:16:37.629Z,4.27
2023-03-02T09:19:05.387Z,4.93
2023-03-02T09:21:33.164Z,6.40
2023-03-02T09:24:00.700Z,4.77
2023-03-02T09:26:28.558Z,6.60
2023-03-02T09:28:56.846Z,5.43
2023-03-02T09:31:24.893Z,6.82
2023-03-02T09:33:52.562Z,9.87
2023-03-02T09:36:23.311Z,6.07
2023-03-02T09:38:50.933Z,5.40
2023-03-02T09:41:21.571Z,7.30
2023-03-02T09:44:16.470Z,2.87
2023-03-02T09:46:52.067Z,7.17
2023-03-02T09:49:31.462Z,6.23
2023-03-02T09:52:17.708Z,5.87
2023-03-02T09:54:45.369Z,10.90
2023-03-02T09:57:26.229Z,5.07
2023-03-02T10:00:12.744Z,8.47
2023-03-02T10:02:54.463Z,12.70
2023-03-02T10:05:27.096Z,3.90
2023-03-02T10:07:57.406Z,1.60
2023-03-02T10:10:45.049Z,2.57
2023-03-02T10:13:49.920Z,2.80
2023-03-02T10:16:33.310Z,3.90
2023-03-02T10:19:07.408Z,2.50
2023-03-02T10:21:38.806Z,4.63
2023-03-02T10:24:29.966Z,3.53
2023-03-02T10:27:17.887Z,3.67
2023-03-02T10:29:53.799Z,4.25
2023-03-02T10:32:24.714Z,3.87
2023-03-02T10:34:53.584Z,3.93
2023-03-02T10:37:28.858Z,3.50
2023-03-02T10:39:56.941Z,6.13
2023-03-02T10:42:36.777Z,5.67
2023-03-02T10:45:40.361Z,4.97
2023-03-02T10:48:12.051Z,5.23
2023-03-02T10:50:40.355Z,3.63
2023-03-02T10:53:15.544Z,4.00
2023-03-02T10:55:48.645Z,5.57
2023-03-02T10:58:36.190Z,4.10
2023-03-02T11:01:07.408Z,4.80
2023-03-02T11:03:34.827Z,3.37
2023-03-02T11:06:20.146Z,7.67
2023-03-02T11:08:59.246Z,9.13
2023-03-02T11:11:26.656Z,10.90
2023-03-02T11:13:56.544Z,18.37
2023-03-02T11:16:31.684Z,14.83
2023-03-02T11:19:03.900Z,18.57
2023-03-02T11:22:26.728Z,6.47
2023-03-02T11:24:58.213Z,7.80
2023-03-02T11:27:29.879Z,6.67
2023-03-02T11:29:59.790Z,9.23
2023-03-02T11:33:12.326Z,8.13
2023-03-02T11:35:53.018Z,7.43
2023-03-02T11:38:30.328Z,7.90
2023-03-02T11:41:10.491Z,8.20
2023-03-02T11:43:40.982Z,6.53
2023-03-02T11:46:21.646Z,9.60
2023-03-02T11:48:53.729Z,9.73
2023-03-02T11:51:28.957Z,12.60
2023-03-02T11:54:05.373Z,7.80
2023-03-02T11:56:36.901Z,7.43
2023-03-02T11:59:15.913Z,11.43
2023-03-02T12:01:48.137Z,11.23
2023-03-02T12:04:37.192Z,11.60
2023-03-02T12:07:27.398Z,8.10
2023-03-02T12:10:00.037Z,8.87
2023-03-02T12:12:30.184Z,10.40
2023-03-02T12:14:58.043Z,10.83
2023-03-02T12:17:25.392Z,10.43
2023-03-02T12:20:08.091Z,9.10
2023-03-02T12:22:37.683Z,11.13
2023-03-02T12:27:55.286Z,10.70
2023-03-02T12:33:21.401Z,13.60
2023-03-02T12:35:57.390Z,10.93
2023-03-02T12:38:31.804Z,13.07
2023-03-02T12:41:21.386Z,24.07
2023-03-02T12:44:07.867Z,18.57
2023-03-02T12:46:37.458Z,25.83
2023-03-02T12:49:25.609Z,34.00
2023-03-02T12:51:54.964Z,15.90
2023-03-02T12:54:30.800Z,16.33
2023-03-02T12:57:18.893Z,16.30
2023-03-02T13:00:00.997Z,14.07
2023-03-02T13:02:34.971Z,19.53
2023-03-02T13:05:06.770Z,18.07
2023-03-02T13:07:42.122Z,19.87
2023-03-02T13:10:24.983Z,16.37
2023-03-02T13:12:52.392Z,15.47
2023-03-02T13:15:20.198Z,20.60
2023-03-02T13:17:54.913Z,22.13
2023-03-02T13:20:29.115Z,16.17
2023-03-02T13:22:56.799Z,25.07
2023-03-02T13:25:30.513Z,28.70
2023-03-02T13:28:10.965Z,27.17
2023-03-02T13:30:47.869Z,30.23
2023-03-02T13:33:22.697Z,27.13
2023-03-02T13:35:50.770Z,22.03
2023-03-02T13:38:21.123Z,18.17
2023-03-02T13:40:54.502Z,16.80
2023-03-02T13:43:39.847Z,32.20
2023-03-02T13:46:18.129Z,33.80
2023-03-02T13:49:09.695Z,25.57
2023-03-02T13:51:41.423Z,20.77
2023-03-02T13:54:28.652Z,21.97
2023-03-02T13:56:58.466Z,20.33
2023-03-02T13:59:26.225Z,18.87
2023-03-02T14:01:53.657Z,21.33
2023-03-02T14:04:23.608Z,26.90
2023-03-02T14:06:53.059Z,20.70
2023-03-02T14:09:21.573Z,23.33
2023-03-02T14:11:53.076Z,28.87
2023-03-02T14:14:24.006Z,30.37
2023-03-02T14:16:51.516Z,27.60
2023-03-02T14:19:20.293Z,20.63
2023-03-02T14:21:48.246Z,29.37
2023-03-02T14:24:15.834Z,30.00
2023-03-02T14:26:50.000Z,28.13
2023-03-02T14:29:26.999Z,68.03
2023-03-02T14:31:56.080Z,21.57
2023-03-02T14:36:54.169Z,63.30
2023-03-02T14:39:42.806Z,36.43
2023-03-02T14:42:19.053Z,44.15
2023-03-02T14:44:50.298Z,31.20
2023-03-02T14:47:19.866Z,36.70
2023-03-02T14:52:31.665Z,33.53
2023-03-02T14:55:14.181Z,26.67
2023-03-02T14:57:41.668Z,37.40
2023-03-02T15:00:13.667Z,31.87
2023-03-02T15:02:41.965Z,37.97
2023-03-02T15:05:10.041Z,35.72
2023-03-02T15:07:39.037Z,40.07
2023-03-02T15:10:07.496Z,32.15
2023-03-02T15:12:35.177Z,33.40
2023-03-02T15:15:02.698Z,36.60
2023-03-02T15:17:30.440Z,39.73
2023-03-02T15:19:58.038Z,22.93
2023-03-02T15:22:25.354Z,21.77
2023-03-02T15:24:52.593Z,25.10
2023-03-02T15:27:20.552Z,21.07
2023-03-02T15:29:48.295Z,20.17
2023-03-02T15:32:15.852Z,18.47
2023-03-02T15:34:43.693Z,20.00
2023-03-02T15:37:12.024Z,18.43
2023-03-02T15:39:39.306Z,21.73
2023-03-02T15:42:07.406Z,17.60
2023-03-02T15:44:34.789Z,18.70
2023-03-02T15:47:02.407Z,19.73
2023-03-02T15:49:32.990Z,15.03
2023-03-02T15:52:00.467Z,12.80
2023-03-02T15:54:28.662Z,12.80
2023-03-02T15:56:56.484Z,15.15
2023-03-02T15:59:29.314Z,16.63
2023-03-02T16:01:59.927Z,16.27
2023-03-02T16:04:29.646Z,14.57
2023-03-02T16:06:57.595Z,18.45
2023-03-02T16:09:25.981Z,18.77
2023-03-02T16:11:53.647Z,17.65
2023-03-02T16:14:21.007Z,14.80
2023-03-02T16:16:48.430Z,17.77
2023-03-02T16:19:19.175Z,19.63
2023-03-02T16:21:47.943Z,18.43
2023-03-02T16:24:17.263Z,18.42
2023-03-02T16:26:45.407Z,20.35
2023-03-02T16:29:13.874Z,18.27
2023-03-02T16:31:41.924Z,20.48
2023-03-02T16:34:10.134Z,17.20
2023-03-02T16:36:39.279Z,23.67
2023-03-02T16:39:08.859Z,18.47
2023-03-02T16:41:37.431Z,19.85
2023-03-02T16:44:05.051Z,23.75
2023-03-02T16:46:39.540Z,19.80
2023-03-02T16:49:07.069Z,22.87
2023-03-02T16:51:34.780Z,22.43
2023-03-02T16:54:02.957Z,24.60
2023-03-02T16:56:30.369Z,19.17
2023-03-02T16:59:00.179Z,18.42
2023-03-02T17:01:28.422Z,18.20
2023-03-02T17:03:56.619Z,15.77
2023-03-02T17:06:24.799Z,18.42
2023-03-02T17:08:52.584Z,20.47
2023-03-02T17:11:20.423Z,18.93
2023-03-02T17:13:48.164Z,15.77
2023-03-02T17:16:16.905Z,17.83
2023-03-02T17:18:47.213Z,34.47
2023-03-02T17:21:17.086Z,17.67
2023-03-02T17:23:48.228Z,14.20
2023-03-02T17:26:17.529Z,17.37
2023-03-02T17:28:47.630Z,13.38
2023-03-02T17:31:15.251Z,17.97
2023-03-02T17:33:42.976Z,11.60
2023-03-02T17:36:12.314Z,20.07
2023-03-02T17:41:10.270Z,19.95
2023-03-02T17:43:40.782Z,22.43
2023-03-02T17:46:15.238Z,16.13
2023-03-02T17:48:43.606Z,13.10
2023-03-02T17:51:12.027Z,17.05
2023-03-02T17:53:39.554Z,16.23
2023-03-02T17:56:07.561Z,16.67
2023-03-02T17:58:44.688Z,15.20
2023-03-02T18:01:15.917Z,16.63
2023-03-02T18:03:45.457Z,19.07
2023-03-02T18:06:13.571Z,19.37
2023-03-02T18:08:41.218Z,22.67
2023-03-02T18:11:09.156Z,19.17
2023-03-02T18:13:36.552Z,12.77
2023-03-02T18:16:04.217Z,15.50
2023-03-02T18:18:32.178Z,15.23
2023-03-02T18:20:59.604Z,17.87
2023-03-02T18:23:26.893Z,16.70
2023-03-02T18:25:54.614Z,23.07
2023-03-02T18:28:22.103Z,14.93
2023-03-02T18:30:49.654Z,14.37
2023-03-02T18:33:17.296Z,19.33
2023-03-02T18:35:44.774Z,15.63
2023-03-02T18:38:12.161Z,18.63
2023-03-02T18:40:39.998Z,15.50
2023-03-02T18:43:07.425Z,13.83
2023-03-02T18:45:34.831Z,15.33
2023-03-02T18:48:02.639Z,17.27
2023-03-02T18:50:30.433Z,26.57
2023-03-02T18:52:57.929Z,29.47
2023-03-02T18:55:26.084Z,28.20
2023-03-02T18:57:56.085Z,34.40
2023-03-02T19:00:27.929Z,30.97
2023-03-02T19:02:57.201Z,32.83
2023-03-02T19:05:27.148Z,32.30
2023-03-02T19:07:55.031Z,20.40
2023-03-02T19:10:22.691Z,24.17
2023-03-02T19:12:50.374Z,24.77
2023-03-02T19:15:17.819Z,20.17
2023-03-02T19:17:46.157Z,29.13
2023-03-02T19:20:15.834Z,27.60
2023-03-02T19:22:43.295Z,40.87
2023-03-02T19:25:12.310Z,33.42
2023-03-02T19:27:40.477Z,30.20
2023-03-02T19:30:11.758Z,22.40
2023-03-02T19:32:39.512Z,20.13
2023-03-02T19:35:07.511Z,24.63
2023-03-02T19:37:35.038Z,25.70
2023-03-02T19:40:02.927Z,20.90
2023-03-02T19:42:33.898Z,15.30
2023-03-02T19:45:03.507Z,16.63
2023-03-02T19:47:32.240Z,17.07
2023-03-02T19:49:59.558Z,11.67
2023-03-02T19:52:26.964Z,15.47
2023-03-02T19:54:54.660Z,16.03
2023-03-02T19:57:21.988Z,11.57
2023-03-02T19:59:49.331Z,16.50
2023-03-02T20:02:17.255Z,15.80
2023-03-02T20:04:46.862Z,23.20
2023-03-02T20:07:14.266Z,18.45
2023-03-02T20:09:44.400Z,18.73
2023-03-02T20:12:12.472Z,12.80
2023-03-02T20:14:43.084Z,15.53
2023-03-02T20:17:11.019Z,15.37
2023-03-02T20:19:38.850Z,10.90
2023-03-02T20:22:07.022Z,15.20
2023-03-02T20:24:34.423Z,12.20
2023-03-02T20:27:02.871Z,8.13
2023-03-02T20:29:30.516Z,8.60
2023-03-02T20:31:58.333Z,9.57
2023-03-02T20:34:26.054Z,8.27
2023-03-02T20:36:53.498Z,14.07
2023-03-02T20:39:28.813Z,10.47
2023-03-02T20:41:56.990Z,12.47
2023-03-02T20:44:26.069Z,9.53
2023-03-02T20:46:57.552Z,8.90
2023-03-02T20:49:27.484Z,11.70
2023-03-02T20:51:56.711Z,8.93
2023-03-02T20:54:27.984Z,7.72
2023-03-02T20:56:56.045Z,5.00
2023-03-02T20:59:24.623Z,8.07
2023-03-02T21:01:52.339Z,8.20
2023-03-02T21:04:20.897Z,8.27
2023-03-02T21:06:48.497Z,8.63
2023-03-02T21:09:18.216Z,6.23
2023-03-02T21:11:46.700Z,18.33
2023-03-02T21:14:14.443Z,12.10
2023-03-02T21:16:44.133Z,12.80
2023-03-02T21:19:16.546Z,6.43
2023-03-02T21:21:44.308Z,11.43
2023-03-02T21:24:16.928Z,6.77
2023-03-02T21:26:49.103Z,5.50
2023-03-02T21:29:19.402Z,3.70
2023-03-02T21:31:47.985Z,3.57
2023-03-02T21:34:16.481Z,7.62
2023-03-02T21:36:44.165Z,4.72
2023-03-02T21:39:12.134Z,6.53
2023-03-02T21:41:40.482Z,4.03
2023-03-02T21:44:08.259Z,4.32
2023-03-02T21:46:36.961Z,7.03
2023-03-02T21:49:04.861Z,4.80
2023-03-02T21:51:33.110Z,4.53
2023-03-02T21:54:00.827Z,4.73
2023-03-02T21:56:28.451Z,8.43
2023-03-02T21:58:57.545Z,6.50
2023-03-02T22:01:27.039Z,4.20
2023-03-02T22:03:55.015Z,7.30
2023-03-02T22:06:25.517Z,12.07
2023-03-02T22:08:54.172Z,8.10
2023-03-02T22:11:25.019Z,6.30
2023-03-02T22:13:55.471Z,11.17
2023-03-02T22:16:27.407Z,6.87
2023-03-02T22:18:59.822Z,6.60
2023-03-02T22:21:27.704Z,5.00
2023-03-02T22:24:04.100Z,10.03
2023-03-02T22:26:33.800Z,9.13
2023-03-02T22:29:13.050Z,7.23
2023-03-02T22:31:47.671Z,7.70
2023-03-02T22:34:22.149Z,4.80
2023-03-02T22:36:49.769Z,6.43
2023-03-02T22:39:43.632Z,7.03
2023-03-02T22:42:20.657Z,6.80
2023-03-02T22:44:57.950Z,9.10
2023-03-02T22:47:25.792Z,8.00
2023-03-02T22:49:59.147Z,4.27
2023-03-02T22:52:37.211Z,5.50
2023-03-02T22:55:37.902Z,9.17
2023-03-02T22:58:32.221Z,6.80
2023-03-02T23:01:01.610Z,8.50
2023-03-02T23:03:43.900Z,14.53
2023-03-02T23:06:20.619Z,6.83
2023-03-02T23:08:48.277Z,5.10
2023-03-02T23:11:19.715Z,16.37
2023-03-02T23:13:47.668Z,7.23
2023-03-02T23:16:20.199Z,5.77
2023-03-02T23:18:48.794Z,8.10
2023-03-02T23:21:37.833Z,7.60
2023-03-02T23:24:07.702Z,8.55
2023-03-02T23:26:35.615Z,8.93
2023-03-02T23:29:04.705Z,10.88
2023-03-02T23:31:32.290Z,6.00
2023-03-02T23:34:00.018Z,9.97
2023-03-02T23:36:27.956Z,5.30
2023-03-02T23:38:55.277Z,7.03
2023-03-02T23:41:23.060Z,10.20
2023-03-02T23:43:50.381Z,8.53
2023-03-02T23:46:18.264Z,9.20
2023-03-02T23:48:46.060Z,5.80
2023-03-02T23:51:13.433Z,4.87
2023-03-02T23:53:40.808Z,13.23
2023-03-02T23:56:08.705Z,9.60
2023-03-02T23:58:36.165Z,18.77
